Latest Coastal Weather Observations for Norah Head

IDN60701

Issued at 11:45 am EDT Tuesday 25 November 2014 (issued every 10 minutes, with the page automatically refreshed every 10 minutes)

About coastal observations | Map of coastal stations | Coastal observations for NSW | Marine services | Other Formats
Station Details ID: 061366 Name: NORAH HEAD AWS Lat: -33.28 Lon: 151.58 Height: 18.8 m
Data from the previous 72 hours. | See also: Recent months at Norah Head
Date/Time
EDT
Temp

°C
Wind Pressure Rain
since 9am
mm
Weather Cloud Vis
km
Sea
Height
m
Swell
Dir
 
Speed
knots
Gust
knots
hPa Trend Height
m
Period
s
Dir
25/11:34am 22.9 S 23 28 1014.6 - 0.0 - - - - - - -
25/11:30am 23.8 S 13 17 1014.7 - 0.0 - - - - - - -
25/11:00am 24.4 S 8 11 1014.4 - 0.0 - - - - - - -
25/10:30am 24.8 SSW 9 12 1014.0 - 0.0 - - - - - - -
25/10:00am 24.9 W 5 8 1013.5 - 0.0 - - - - - - -
25/09:30am 25.1 WNW 5 11 1013.0 - 0.0 - - - - - - -
25/09:00am 24.3 W 4 12 1012.3 - 9.4 - - - - - - -
25/08:30am 23.9 WNW 5 11 1012.1 - 9.4 - - - - - - -
25/08:00am 23.3 W 5 11 1011.9 - 9.4 - - - - - - -
25/07:30am 22.5 WSW 4 8 1011.0 - 9.4 - - - - - - -
25/07:13am 22.3 WNW 7 12 1010.8 - 9.4 - - - - - - -
25/07:00am 22.1 N 12 15 1008.7 - 9.4 - - - - - - -
25/06:30am 22.1 NW 7 10 1008.9 - 9.4 - - - - - - -
25/06:00am 22.2 NW 5 10 1009.5 - 9.4 Recent precip. - - - - - -
25/05:30am 22.0 NW 5 8 1009.7 - 9.0 - - - - - - -
25/05:00am 22.1 NW 3 5 1009.5 - 9.0 - - - - - - -
25/04:30am 22.1 NW 5 7 1008.7 - 9.0 - - - - - - -
25/04:00am 22.3 NNW 5 7 1008.4 - 9.0 - - - - - - -
25/03:30am 22.6 NW 5 9 1009.1 - 9.0 - - - - - - -
25/03:00am 22.4 WNW 3 4 1009.6 - 9.0 - - - - - - -
25/02:30am 22.3 WNW 4 6 1009.2 - 9.0 - - - - - - -
25/02:00am 22.2 WNW 3 7 1009.3 - 9.0 - - - - - - -
25/01:30am 22.1 NW 5 9 1009.6 - 9.0 - - - - - - -
25/01:00am 22.3 NW 5 7 1009.8 - 9.0 - - - - - - -
25/12:30am 22.4 NNW 8 13 1010.3 - 8.8 - - - - - - -
25/12:00am 22.5 NNW 8 11 1010.0 - 8.4 - - - - - - -
 
Date/Time
EDT
Temp

°C
Wind Pressure Rain
since 9am
mm
Weather Cloud Vis
km
Sea
Height
m
Swell
Dir
 
Speed
knots
Gust
knots
hPa Trend Height
m
Period
s
Dir
24/11:30pm 22.4 NW 3 5 1009.4 - 8.4 - - - - - - -
24/11:00pm 22.4 N 11 12 1009.5 - 8.4 - - - - - - -
24/10:30pm 22.7 WNW 4 9 1010.1 - 5.8 - - - - - - -
24/10:00pm 21.7 W 5 6 1009.3 - 5.6 - - - - - - -
24/09:30pm 21.6 NE 5 6 1008.1 - 5.6 - - - - - - -
24/09:00pm 21.7 NE 11 13 1008.6 - 5.6 Rain - - - - - -
24/08:30pm 21.6 W 1 3 1009.5 - 3.2 - - - - - - -
24/08:00pm 21.7 S 12 14 1008.1 - 3.2 - - - - - - -
24/07:50pm 21.7 SW 6 11 1009.1 - 2.4 - - - - - - -
24/07:30pm 21.9 E 9 11 1007.1 - 2.4 - - - - - - -
24/07:00pm 21.9 E 10 11 1006.6 - 2.4 - - - - - - -
24/06:48pm 22.0 E 6 11 1006.9 - 2.4 - - - - - - -
24/06:30pm 21.8 SW 5 10 1008.9 - 1.8 - - - - - - -
24/06:00pm 22.0 SSW 5 8 1008.1 - 0.4 Rain - - - - - -
24/05:30pm 22.5 SSE 11 13 1007.7 - 0.0 - - - - - - -
24/05:29pm 22.6 SSE 11 12 1007.8 - 0.0 - - - - - - -
24/05:08pm 22.5 SSW 6 10 1009.8 - 0.0 - - - - - - -
24/05:00pm 22.5 S 8 13 1007.7 - 0.0 - - - - - - -
24/04:30pm 22.8 CALM 0 3 1006.5 - 0.0 - - - - - - -
24/04:00pm 22.3 N 2 4 1007.3 - 0.0 - - - - - - -
24/03:30pm 23.2 NE 6 8 1007.1 - 0.0 - - - - - - -
24/03:00pm 25.8 NE 8 10 1007.6 - 0.0 - - - - - - -
24/02:30pm 24.8 ENE 8 10 1008.5 - 0.0 - - - - - - -
24/02:00pm 24.7 E 7 8 1009.5 - 0.0 - - - - - - -
24/01:30pm 24.6 E 5 7 1010.2 - 0.0 - - - - - - -
24/01:00pm 24.8 ESE 4 5 1010.8 - 0.0 - - - - - - -
24/12:30pm 25.5 SSE 10 12 1011.2 - 0.0 - - - - - - -
24/12:00pm 25.1 SSE 12 13 1011.8 - 0.0 - - - - - - -
24/11:30am 24.7 S 9 11 1012.6 - 0.0 - - - - - - -
24/11:00am 23.7 S 9 11 1013.2 - 0.0 - - - - - - -
24/10:30am 23.3 S 10 14 1013.3 - 0.0 - - - - - - -
24/10:00am 22.8 SSW 9 11 1013.7 - 0.0 - - - - - - -
24/09:30am 23.0 SSW 11 14 1013.9 - 0.0 - - - - - - -
24/09:00am 22.9 SSW 8 11 1014.3 - 0.0 - - - - - - -
24/08:30am 21.9 SSW 7 9 1014.6 - 0.0 - - - - - - -
24/08:00am 21.7 SSW 6 8 1014.2 - 0.0 - - - - - - -
24/07:30am 21.3 S 11 14 1013.6 - 0.0 - - - - - - -
24/07:00am 21.2 S 8 10 1013.9 - 0.0 - - - - - - -
24/06:30am 21.2 S 6 7 1013.5 - 0.0 - - - - - - -
24/06:00am 21.1 SSW 3 5 1013.8 - 0.0 - - - - - - -
24/05:30am 21.0 SSE 4 6 1013.4 - 0.0 - - - - - - -
24/05:00am 21.2 ESE 6 7 1013.2 - 0.0 - - - - - - -
24/04:30am 21.1 SSE 10 12 1012.8 - 0.0 - - - - - - -
24/04:00am 21.1 SSE 11 14 1012.3 - 0.0 - - - - - - -
24/03:30am 21.0 SSE 15 18 1011.6 - 0.0 - - - - - - -
24/03:00am 21.1 S 15 19 1011.0 - 0.0 - - - - - - -
24/02:30am 21.4 S 14 17 1011.2 - 0.0 - - - - - - -
24/02:00am 21.4 SSW 9 11 1011.5 - 0.0 - - - - - - -
24/01:30am 21.7 SW 3 5 1012.0 - 0.0 - - - - - - -
24/01:00am 21.3 W 2 4 1012.4 - 0.0 - - - - - - -
24/12:30am 21.4 WSW 2 4 1013.3 - 0.0 - - - - - - -
24/12:00am 21.1 W 1 4 1013.6 - 0.0 - - - - - - -
 
Date/Time
EDT
Temp

°C
Wind Pressure Rain
since 9am
mm
Weather Cloud Vis
km
Sea
Height
m
Swell
Dir
 
Speed
knots
Gust
knots
hPa Trend Height
m
Period
s
Dir
23/11:30pm 21.3 S 2 8 1013.5 - 0.0 - - - - - - -
23/11:00pm 21.4 S 8 10 1013.5 - 0.0 - - - - - - -
23/10:30pm 21.6 SSW 8 11 1014.2 - 0.0 - - - - - - -
23/10:00pm 21.7 S 12 16 1013.5 - 0.0 - - - - - - -
23/09:30pm 21.9 S 14 20 1013.5 - 0.0 - - - - - - -
23/09:00pm 22.5 SSW 27 40 1012.6 - 0.0 - - - - - - -
23/08:51pm 23.1 SSW 28 39 1012.3 - 0.0 - - - - - - -
23/08:47pm 24.3 S 31 39 1010.9 - 0.0 - - - - - - -
23/08:46pm 24.9 SW 18 38 1011.0 - 0.0 - - - - - - -
23/08:30pm 26.2 N 8 12 1010.6 - 0.0 - - - - - - -
23/08:00pm 28.4 N 22 35 1008.7 - 0.0 - - - - - - -
23/07:50pm 27.2 N 21 33 1008.4 - 0.0 - - - - - - -
23/07:30pm 27.8 N 23 30 1007.5 - 0.0 - - - - - - -
23/07:00pm 27.5 NNE 17 24 1007.8 - 0.0 - - - - - - -
23/06:30pm 25.6 E 13 16 1008.4 - 0.0 - - - - - - -
23/06:00pm 25.8 WSW 3 6 1009.2 - 0.0 - - - - - - -
23/05:58pm 25.5 WSW 3 9 1009.0 - 0.0 - - - - - - -
23/05:30pm 24.4 N 10 13 1006.9 - 0.0 - - - - - - -
23/05:00pm 23.8 SSW 3 8 1007.9 - 0.0 - - - - - - -
23/04:30pm 23.9 N 3 5 1007.3 - 0.0 - - - - - - -
23/04:00pm 24.3 NNE 8 11 1007.1 - 0.0 - - - - - - -
23/03:30pm 23.9 NNE 7 9 1007.5 - 0.0 - - - - - - -
23/03:00pm 24.2 NNE 9 12 1008.1 - 0.0 - - - - - - -
23/02:30pm 24.7 NE 8 9 1008.7 - 0.0 - - - - - - -
23/02:00pm 24.8 NE 8 9 1009.2 - 0.0 - - - - - - -
23/01:30pm 27.8 NE 8 10 1009.6 - 0.0 - - - - - - -
23/01:00pm 27.5 NE 9 11 1010.0 - 0.0 - - - - - - -
23/12:30pm 27.8 NE 9 11 1010.5 - 0.0 - - - - - - -
23/12:00pm 26.1 ENE 7 8 1010.9 - 0.0 - - - - - - -
23/11:30am 26.2 ENE 4 7 1011.1 - 0.0 - - - - - - -
23/11:00am 24.9 ENE 5 5 1011.4 - 0.0 - - - - - - -
23/10:30am 24.9 NE 9 10 1011.7 - 0.0 - - - - - - -
23/10:00am 24.3 NE 8 10 1011.9 - 0.0 - - - - - - -
23/09:30am 21.8 NNE 7 8 1011.8 - 0.0 - - - - - - -
23/09:00am 24.0 NE 6 7 1011.8 - 0.0 - - - - - - -
23/08:30am 22.7 NE 3 5 1011.6 - 0.0 - - - - - - -
23/08:00am 20.7 NNE 3 5 1011.5 - 0.0 - - - - - - -
23/07:30am 20.5 CALM 0 0 1011.5 - 0.0 - - - - - - -
23/07:00am 20.1 WSW 1 4 1011.4 - 0.0 - - - - - - -
23/06:30am 20.0 CALM 0 0 1011.0 - 0.0 - - - - - - -
23/06:00am 19.9 W 1 3 1010.8 - 0.0 - - - - - - -
23/05:30am 20.2 W 1 3 1011.1 - 0.0 - - - - - - -
23/05:00am 20.1 CALM 0 0 1010.8 - 0.0 - - - - - - -
23/04:30am 20.2 CALM 0 0 1010.6 - 0.0 - - - - - - -
23/04:00am 20.2 CALM 0 2 1010.3 - 0.0 - - - - - - -
23/03:30am 20.3 CALM 0 2 1010.8 - 0.0 - - - - - - -
23/03:00am 20.3 NNW 2 3 1010.8 - 0.0 - - - - - - -
23/02:30am 20.4 NNE 4 7 1010.8 - 0.0 - - - - - - -
23/02:00am 20.4 NNW 1 4 1011.6 - 0.0 - - - - - - -
23/01:30am 20.5 N 2 4 1012.0 - 0.0 - - - - - - -
23/01:00am 20.4 NNE 3 4 1011.8 - 0.0 - - - - - - -
23/12:30am 20.4 N 3 5 1012.7 - 0.0 - - - - - - -
23/12:00am 20.5 N 6 7 1012.7 - 0.0 - - - - - - -
 
Date/Time
EDT
Temp

°C
Wind Pressure Rain
since 9am
mm
Weather Cloud Vis
km
Sea
Height
m
Swell
Dir
 
Speed
knots
Gust
knots
hPa Trend Height
m
Period
s
Dir
22/11:30pm 20.5 CALM 0 0 1013.2 - 0.0 - - - - - - -
22/11:00pm 20.5 CALM 0 0 1013.4 - 0.0 - - - - - - -
22/10:30pm 20.5 N 2 3 1013.6 - 0.0 - - - - - - -
22/10:00pm 20.4 N 6 9 1013.4 - 0.0 - - - - - - -
22/09:30pm 20.5 NNE 10 12 1012.9 - 0.0 - - - - - - -
22/09:00pm 20.7 NNE 7 10 1012.7 - 0.0 - - - - - - -
22/08:30pm 20.9 NE 8 10 1012.3 - 0.0 - - - - - - -
22/08:00pm 21.0 NE 8 9 1012.4 - 0.0 - - - - - - -
22/07:30pm 21.1 ENE 6 8 1012.0 - 0.0 - - - - - - -
22/07:00pm 21.0 ENE 7 8 1011.7 - 0.0 - - - - - - -
22/06:30pm 21.0 E 8 10 1011.1 - 0.0 - - - - - - -
22/06:00pm 21.0 E 9 11 1010.8 - 0.0 - - - - - - -
22/05:30pm 21.4 E 10 12 1010.8 - 0.0 - - - - - - -
22/05:00pm 21.9 E 12 14 1011.0 - 0.0 - - - - - - -
22/04:30pm 22.2 E 12 13 1011.1 - 0.0 - - - - - - -
22/04:00pm 22.6 E 9 10 1011.2 - 0.0 - - - - - - -
22/03:30pm 22.9 ESE 11 13 1011.8 - 0.0 - - - - - - -
22/03:00pm 22.8 ESE 11 12 1012.0 - 0.0 - - - - - - -
22/02:30pm 23.4 ESE 12 14 1012.0 - 0.0 - - - - - - -
22/02:00pm 23.8 SE 11 12 1012.5 - 0.0 - - - - - - -
22/01:30pm 23.8 SE 8 9 1013.2 - 0.0 - - - - - - -
22/01:00pm 24.1 SE 8 9 1013.6 - 0.0 - - - - - - -
22/12:30pm 23.4 SE 7 8 1013.7 - 0.0 - - - - - - -
22/12:00pm 24.0 SSE 9 11 1014.4 - 0.0 - - - - - - -

Other Formats:

Comma delimited format used in spreadsheet applications
http://www.bom.gov.au/fwo/IDN60701/IDN60701.95770.axf

JavaScript Object Notation format (JSON) in row-major order
http://www.bom.gov.au/fwo/IDN60701/IDN60701.95770.json